Hollins, Alabama
Current Conditions -  °F | °C
As of 2:35 AM on Saturday 20 Dec 2014 (Local Time) from KSCD Reporting Station
Moderate Rain Moderate Rain  
Wind Chill: 38°   Ceiling: 400
Heat Index: 41°   Visibility: 5mi
Dew Point: 41°   Wind: 5mph
Humidity: 100%   Direction: 340°NNW
Pressure: 30.17"   Gusts: NA
Location:  33.12°N, 86.14°W
Report Text: KSCD 200835Z AUTO 34004KT 5SM RA OVC004 05/05 A3017 RMK AO2 T00490049
Loading
Personal Weather Stations






























Interactive Weather Map New forecast layout! Learn more

10-Day Weather Forecast

Advertisements
Track Severe Weather on mobile